createdAt,value
2018-02-23T00:01:28.034Z,17.40
2018-02-23T00:03:55.696Z,12.60
2018-02-23T00:06:23.246Z,17.75
2018-02-23T00:08:50.754Z,7.95
2018-02-23T00:11:18.351Z,16.35
2018-02-23T00:13:45.866Z,14.27
2018-02-23T00:16:13.381Z,17.85
2018-02-23T00:18:40.926Z,15.38
2018-02-23T00:21:08.459Z,16.02
2018-02-23T00:23:36.165Z,16.58
2018-02-23T00:26:03.692Z,23.48
2018-02-23T00:28:31.211Z,17.83
2018-02-23T00:30:58.782Z,18.35
2018-02-23T00:33:26.298Z,12.73
2018-02-23T00:35:53.844Z,21.42
2018-02-23T00:38:21.359Z,19.08
2018-02-23T00:40:48.871Z,17.15
2018-02-23T00:43:17.198Z,19.37
2018-02-23T00:45:44.721Z,23.62
2018-02-23T00:48:12.266Z,23.08
2018-02-23T00:50:39.789Z,27.55
2018-02-23T00:53:07.314Z,16.95
2018-02-23T00:55:34.875Z,12.93
2018-02-23T00:58:02.729Z,17.70
2018-02-23T01:00:30.251Z,40.20
2018-02-23T01:02:57.790Z,20.10
2018-02-23T01:05:25.315Z,18.83
2018-02-23T01:07:52.874Z,25.98
2018-02-23T01:10:20.403Z,17.20
2018-02-23T01:12:47.935Z,27.15
2018-02-23T01:15:15.465Z,17.67
2018-02-23T01:17:43.018Z,21.85
2018-02-23T01:20:10.730Z,17.98
2018-02-23T01:22:38.261Z,29.90
2018-02-23T01:25:05.798Z,22.25
2018-02-23T01:27:33.507Z,24.33
2018-02-23T01:30:01.027Z,16.33
2018-02-23T01:32:28.565Z,23.15
2018-02-23T01:34:56.120Z,12.27
2018-02-23T01:37:23.655Z,19.75
2018-02-23T01:39:51.175Z,27.48
2018-02-23T01:42:19.202Z,22.95
2018-02-23T01:44:46.713Z,20.12
2018-02-23T01:47:14.217Z,17.27
2018-02-23T01:49:41.947Z,21.08
2018-02-23T01:52:09.466Z,22.52
2018-02-23T01:54:37.004Z,15.52
2018-02-23T01:57:04.746Z,21.85
2018-02-23T01:59:32.323Z,19.92
2018-02-23T02:01:59.834Z,25.77
2018-02-23T02:04:27.401Z,18.02
2018-02-23T02:06:54.922Z,19.02
2018-02-23T02:09:22.458Z,31.12
2018-02-23T02:11:50.038Z,18.60
2018-02-23T02:14:17.553Z,20.12
2018-02-23T02:16:45.065Z,18.55
2018-02-23T02:19:13.197Z,18.35
2018-02-23T02:21:40.717Z,19.90
2018-02-23T02:24:08.241Z,19.55
2018-02-23T02:26:36.285Z,15.60
2018-02-23T02:29:03.798Z,24.25
2018-02-23T02:31:31.311Z,16.15
2018-02-23T02:33:59.041Z,21.23
2018-02-23T02:36:26.564Z,24.30
2018-02-23T02:38:54.084Z,17.37
2018-02-23T02:41:21.635Z,21.05
2018-02-23T02:43:49.159Z,15.48
2018-02-23T02:46:16.677Z,22.30
2018-02-23T02:48:44.394Z,22.87
2018-02-23T02:51:11.911Z,24.12
2018-02-23T02:53:39.431Z,16.08
2018-02-23T02:56:07.209Z,23.15
2018-02-23T02:58:34.722Z,23.65
2018-02-23T03:01:02.238Z,27.05
2018-02-23T03:03:29.928Z,19.55
2018-02-23T03:05:57.440Z,20.45
2018-02-23T03:08:24.954Z,29.95
2018-02-23T03:10:52.490Z,14.52
2018-02-23T03:13:19.998Z,19.73
2018-02-23T03:15:47.526Z,25.95
2018-02-23T03:18:15.075Z,17.45
2018-02-23T03:20:42.597Z,20.30
2018-02-23T03:23:10.112Z,18.73
2018-02-23T03:25:37.674Z,21.08
2018-02-23T03:28:05.181Z,14.77
2018-02-23T03:30:32.695Z,16.35
2018-02-23T03:33:00.238Z,23.98
2018-02-23T03:35:27.759Z,31.67
2018-02-23T03:37:55.284Z,15.52
2018-02-23T03:40:22.821Z,19.05
2018-02-23T03:42:50.333Z,16.70
2018-02-23T03:45:17.844Z,19.15
2018-02-23T03:47:46.351Z,19.60
2018-02-23T03:50:14.030Z,16.58
2018-02-23T03:52:41.693Z,20.60
2018-02-23T03:55:09.239Z,21.92
2018-02-23T03:57:36.843Z,23.87
2018-02-23T04:00:04.357Z,22.70
2018-02-23T04:02:31.899Z,21.37
2018-02-23T04:04:59.414Z,11.35
2018-02-23T04:07:26.931Z,21.17
2018-02-23T04:09:54.470Z,23.75
2018-02-23T04:12:21.997Z,28.25
2018-02-23T04:14:49.532Z,25.40
2018-02-23T04:17:17.087Z,19.55
2018-02-23T04:19:44.602Z,31.85
2018-02-23T04:22:12.110Z,19.05
2018-02-23T04:24:39.650Z,17.42
2018-02-23T04:27:07.153Z,19.00
2018-02-23T04:29:34.674Z,24.23
2018-02-23T04:32:02.218Z,23.77
2018-02-23T04:34:29.729Z,23.00
2018-02-23T04:36:57.249Z,20.02
2018-02-23T04:39:25.112Z,26.30
2018-02-23T04:41:52.635Z,24.40
2018-02-23T04:44:20.150Z,17.92
2018-02-23T04:46:47.694Z,20.25
2018-02-23T04:49:15.258Z,21.70
2018-02-23T04:51:42.759Z,29.35
2018-02-23T04:54:10.317Z,20.62
2018-02-23T04:56:37.847Z,26.40
2018-02-23T04:59:05.373Z,35.78
2018-02-23T05:01:32.937Z,18.10
2018-02-23T05:04:00.462Z,23.15
2018-02-23T05:06:27.973Z,28.83
2018-02-23T05:08:55.521Z,27.02
2018-02-23T05:11:23.041Z,33.28
2018-02-23T05:13:50.563Z,33.45
2018-02-23T05:16:18.620Z,37.25
2018-02-23T05:18:46.135Z,26.87
2018-02-23T05:21:13.655Z,25.95
2018-02-23T05:23:41.197Z,22.48
2018-02-23T05:26:08.718Z,26.70
2018-02-23T05:28:36.241Z,27.05
2018-02-23T05:31:03.790Z,30.00
2018-02-23T05:33:31.316Z,26.23
2018-02-23T05:35:58.849Z,26.23
2018-02-23T05:38:26.392Z,36.13
2018-02-23T05:40:53.917Z,31.65
2018-02-23T05:43:21.442Z,30.27
2018-02-23T05:45:48.981Z,28.60
2018-02-23T05:48:16.502Z,36.05
2018-02-23T05:50:44.025Z,26.95
2018-02-23T05:53:11.582Z,29.05
2018-02-23T05:55:39.109Z,26.73
2018-02-23T05:58:06.635Z,20.67
2018-02-23T06:00:34.178Z,27.10
2018-02-23T06:03:01.713Z,30.70
2018-02-23T06:05:29.257Z,32.08
2018-02-23T06:07:56.805Z,36.50
2018-02-23T06:10:24.328Z,32.70
2018-02-23T06:12:51.852Z,31.40
2018-02-23T06:15:19.389Z,24.00
2018-02-23T06:17:52.460Z,34.00
2018-02-23T06:20:25.680Z,27.20
2018-02-23T06:22:53.226Z,41.63
2018-02-23T06:25:20.750Z,32.97
2018-02-23T06:27:48.402Z,36.80
2018-02-23T06:30:15.918Z,36.13
2018-02-23T06:32:43.452Z,34.75
2018-02-23T06:35:10.994Z,27.25
2018-02-23T06:37:38.900Z,24.77
2018-02-23T06:40:06.422Z,27.85
2018-02-23T06:42:34.301Z,24.23
2018-02-23T06:45:01.822Z,26.10
2018-02-23T06:47:29.342Z,27.60
2018-02-23T06:49:56.886Z,29.33
2018-02-23T06:52:24.421Z,33.40
2018-02-23T06:54:51.946Z,36.80
2018-02-23T06:57:19.499Z,32.08
2018-02-23T06:59:47.019Z,28.20
2018-02-23T07:02:14.583Z,34.17
2018-02-23T07:04:42.166Z,29.00
2018-02-23T07:07:09.701Z,33.15
2018-02-23T07:09:37.236Z,24.63
2018-02-23T07:12:04.786Z,33.35
2018-02-23T07:14:32.311Z,35.65
2018-02-23T07:16:59.849Z,34.72
2018-02-23T07:19:28.327Z,32.75
2018-02-23T07:21:55.849Z,28.65
2018-02-23T07:24:23.382Z,42.70
2018-02-23T07:26:50.934Z,33.90
2018-02-23T07:29:18.468Z,27.00
2018-02-23T07:31:46.022Z,36.30
2018-02-23T07:34:13.562Z,27.65
2018-02-23T07:36:41.073Z,44.13
2018-02-23T07:39:08.597Z,40.20
2018-02-23T07:41:36.143Z,61.97
2018-02-23T07:44:03.666Z,33.47
2018-02-23T07:46:31.185Z,34.67
2018-02-23T07:48:58.773Z,47.65
2018-02-23T07:51:26.287Z,37.58
2018-02-23T07:53:53.810Z,28.58
2018-02-23T07:56:21.391Z,32.97
2018-02-23T07:58:48.918Z,28.87
2018-02-23T08:01:16.446Z,38.45
2018-02-23T08:03:43.989Z,30.30
2018-02-23T08:06:11.527Z,28.42
2018-02-23T08:08:39.050Z,37.65
2018-02-23T08:11:06.635Z,33.08
2018-02-23T08:13:34.170Z,35.45
2018-02-23T08:16:01.704Z,30.00
2018-02-23T08:18:29.253Z,38.60
2018-02-23T08:20:56.777Z,34.85
2018-02-23T08:23:24.358Z,33.08
2018-02-23T08:25:51.912Z,38.67
2018-02-23T08:28:19.461Z,35.70
2018-02-23T08:30:46.978Z,35.88
2018-02-23T08:33:14.779Z,24.52
2018-02-23T08:35:42.297Z,43.80
2018-02-23T08:38:09.815Z,39.72
2018-02-23T08:40:37.422Z,33.33
2018-02-23T08:43:04.946Z,36.58
2018-02-23T08:45:32.474Z,31.37
2018-02-23T08:48:00.027Z,34.53
2018-02-23T08:50:27.593Z,37.22
2018-02-23T08:52:55.115Z,44.38
2018-02-23T08:55:23.017Z,31.23
2018-02-23T08:57:50.537Z,39.58
2018-02-23T09:00:19.992Z,27.83
2018-02-23T09:02:47.620Z,36.58
2018-02-23T09:05:15.130Z,35.28
2018-02-23T09:07:42.653Z,25.80
2018-02-23T09:10:10.409Z,31.08
2018-02-23T09:12:37.940Z,33.40
2018-02-23T09:15:05.480Z,33.40
2018-02-23T09:17:33.037Z,30.55
2018-02-23T09:20:00.561Z,41.33
2018-02-23T09:22:28.081Z,23.27
2018-02-23T09:24:55.638Z,40.17
2018-02-23T09:27:23.154Z,31.80
2018-02-23T09:29:50.670Z,36.13
2018-02-23T09:32:20.818Z,46.80
2018-02-23T09:34:48.333Z,44.13
2018-02-23T09:37:15.854Z,44.00
2018-02-23T09:39:43.403Z,30.30
2018-02-23T09:42:10.923Z,35.63
2018-02-23T09:44:38.718Z,41.15
2018-02-23T09:47:06.287Z,43.60
2018-02-23T09:49:33.797Z,37.78
2018-02-23T09:52:01.338Z,36.40
2018-02-23T09:54:28.886Z,47.80
2018-02-23T09:56:56.452Z,33.22
2018-02-23T09:59:24.018Z,41.63
2018-02-23T10:01:51.536Z,32.97
2018-02-23T10:04:19.085Z,42.80
2018-02-23T10:06:46.604Z,45.08
2018-02-23T10:09:14.178Z,47.35
2018-02-23T10:11:41.776Z,50.20
2018-02-23T10:14:09.539Z,44.55
2018-02-23T10:16:37.123Z,47.95
2018-02-23T10:19:05.478Z,43.63
2018-02-23T10:21:33.652Z,47.67
2018-02-23T10:24:01.518Z,41.72
2018-02-23T10:26:29.086Z,46.53
2018-02-23T10:28:58.482Z,45.50
2018-02-23T10:31:26.143Z,44.00
2018-02-23T10:33:54.418Z,40.17
2018-02-23T10:36:25.936Z,38.78
2018-02-23T10:38:53.837Z,35.65
2018-02-23T10:41:21.715Z,47.05
2018-02-23T10:43:49.258Z,42.13
2018-02-23T10:46:18.153Z,50.55
2018-02-23T10:48:45.956Z,43.13
2018-02-23T10:51:13.785Z,42.67
2018-02-23T10:53:41.375Z,46.10
2018-02-23T10:56:08.889Z,48.95
2018-02-23T10:58:36.402Z,42.45
2018-02-23T11:01:03.979Z,50.80
2018-02-23T11:03:31.737Z,47.28
2018-02-23T11:05:59.543Z,48.17
2018-02-23T11:08:27.312Z,49.70
2018-02-23T11:10:54.862Z,39.63
2018-02-23T11:13:22.485Z,51.13
2018-02-23T11:15:50.093Z,43.45
2018-02-23T11:18:17.757Z,46.70
2018-02-23T11:20:45.418Z,56.80
2018-02-23T11:23:12.979Z,37.45
2018-02-23T11:25:40.518Z,43.78
2018-02-23T11:28:08.108Z,52.80
2018-02-23T11:30:35.618Z,44.67
2018-02-23T11:33:03.246Z,42.88
2018-02-23T11:35:30.918Z,42.65
2018-02-23T11:37:58.438Z,60.15
2018-02-23T11:40:25.995Z,40.15
2018-02-23T11:42:53.514Z,58.60
2018-02-23T11:45:21.128Z,38.38
2018-02-23T11:47:48.690Z,52.78
2018-02-23T11:50:16.237Z,37.30
2018-02-23T11:52:43.770Z,39.42
2018-02-23T11:55:11.307Z,45.53
2018-02-23T11:57:44.768Z,50.17
2018-02-23T12:00:12.281Z,47.95
2018-02-23T12:02:40.786Z,38.85
2018-02-23T12:05:08.373Z,44.45
2018-02-23T12:07:36.113Z,53.05
2018-02-23T12:10:03.694Z,40.97
2018-02-23T12:12:31.382Z,43.35
2018-02-23T12:14:59.172Z,45.70
2018-02-23T12:17:26.843Z,43.42
2018-02-23T12:19:54.721Z,45.85
2018-02-23T12:22:23.408Z,46.90
2018-02-23T12:24:51.376Z,42.13
2018-02-23T12:27:19.344Z,44.55
2018-02-23T12:29:47.417Z,43.50
2018-02-23T12:32:15.002Z,45.85
2018-02-23T12:34:42.844Z,47.28
2018-02-23T12:37:10.385Z,49.22
2018-02-23T12:39:38.149Z,35.33
2018-02-23T12:42:05.802Z,49.63
2018-02-23T12:44:33.525Z,54.65
2018-02-23T12:47:01.431Z,54.97
2018-02-23T12:49:28.984Z,46.88
2018-02-23T12:51:56.757Z,48.33
2018-02-23T12:54:24.647Z,45.30
2018-02-23T12:56:52.448Z,60.97
2018-02-23T12:59:20.461Z,59.75
2018-02-23T13:01:48.266Z,49.20
2018-02-23T13:04:16.115Z,55.00
2018-02-23T13:06:44.013Z,50.12
2018-02-23T13:09:12.051Z,54.65
2018-02-23T13:11:40.948Z,51.08
2018-02-23T13:14:09.386Z,47.88
2018-02-23T13:16:37.392Z,44.00
2018-02-23T13:19:05.258Z,44.42
2018-02-23T13:21:33.328Z,51.30
2018-02-23T13:24:01.101Z,48.75
2018-02-23T13:26:29.123Z,38.00
2018-02-23T13:28:57.124Z,51.97
2018-02-23T13:31:25.923Z,48.17
2018-02-23T13:33:54.149Z,45.67
2018-02-23T13:36:21.933Z,47.53
2018-02-23T13:38:50.754Z,55.78
2018-02-23T13:41:24.290Z,50.20
2018-02-23T13:43:52.319Z,44.85
2018-02-23T13:46:20.253Z,49.97
2018-02-23T13:48:48.044Z,50.92
2018-02-23T13:51:16.190Z,57.97
2018-02-23T13:53:45.935Z,57.35
2018-02-23T13:56:13.768Z,39.25
2018-02-23T13:58:41.567Z,49.42
2018-02-23T14:01:09.330Z,45.40
2018-02-23T14:03:37.591Z,50.53
2018-02-23T14:06:05.383Z,54.90
2018-02-23T14:08:33.133Z,53.70
2018-02-23T14:11:00.898Z,46.90
2018-02-23T14:13:28.735Z,47.90
2018-02-23T14:15:56.534Z,58.30
2018-02-23T14:18:24.600Z,51.15
2018-02-23T14:20:52.475Z,55.65
2018-02-23T14:23:20.666Z,42.30
2018-02-23T14:25:48.531Z,58.58
2018-02-23T14:28:16.485Z,55.08
2018-02-23T14:30:44.727Z,50.38
2018-02-23T14:33:12.825Z,54.53
2018-02-23T14:35:41.719Z,40.08
2018-02-23T14:38:09.479Z,52.05
2018-02-23T14:40:37.398Z,47.97
2018-02-23T14:43:05.314Z,55.72
2018-02-23T14:45:33.180Z,46.05
2018-02-23T14:48:01.641Z,43.22
2018-02-23T14:53:38.720Z,53.55
2018-02-23T14:56:06.731Z,46.67
2018-02-23T14:58:34.680Z,45.80
2018-02-23T15:01:02.945Z,40.35
2018-02-23T15:03:30.540Z,55.65
2018-02-23T15:05:58.425Z,52.53
2018-02-23T15:08:26.404Z,43.87
2018-02-23T15:10:54.545Z,49.22
2018-02-23T15:13:22.409Z,57.22
2018-02-23T15:15:50.378Z,59.75
2018-02-23T15:18:18.579Z,46.15
2018-02-23T15:20:46.445Z,58.22
2018-02-23T15:23:14.713Z,44.78
2018-02-23T15:25:42.664Z,51.55
2018-02-23T15:28:10.848Z,43.40
2018-02-23T15:30:50.890Z,51.00
2018-02-23T15:33:18.775Z,54.85
2018-02-23T15:35:46.378Z,57.58
2018-02-23T15:38:14.286Z,52.17
2018-02-23T15:40:42.357Z,46.70
2018-02-23T15:43:10.302Z,61.85
2018-02-23T15:45:38.980Z,53.20
2018-02-23T15:48:12.508Z,39.65
2018-02-23T15:50:45.905Z,55.03
2018-02-23T15:53:13.790Z,62.83
2018-02-23T15:55:42.355Z,72.45
2018-02-23T15:58:15.877Z,51.65
2018-02-23T16:00:43.824Z,49.38
2018-02-23T16:03:11.789Z,47.58
2018-02-23T16:05:39.759Z,55.03
2018-02-23T16:08:07.526Z,46.05
2018-02-23T16:10:35.656Z,48.70
2018-02-23T16:13:03.523Z,51.67
2018-02-23T16:15:31.942Z,45.75
2018-02-23T16:18:00.403Z,43.20
2018-02-23T16:20:28.701Z,56.40
2018-02-23T16:22:57.281Z,51.17
2018-02-23T16:25:25.064Z,47.30
2018-02-23T16:27:53.322Z,47.00
2018-02-23T16:30:21.263Z,66.60
2018-02-23T16:32:49.076Z,95.20
2018-02-23T16:35:17.330Z,81.15
2018-02-23T16:37:45.526Z,50.72
2018-02-23T16:40:13.881Z,50.83
2018-02-23T16:42:41.851Z,65.62
2018-02-23T16:45:10.538Z,47.90
2018-02-23T16:47:38.608Z,47.95
2018-02-23T16:50:06.475Z,39.22
2018-02-23T16:52:34.444Z,46.45
2018-02-23T16:55:04.563Z,49.83
2018-02-23T16:57:32.325Z,49.20
2018-02-23T17:00:00.296Z,55.10
2018-02-23T17:02:31.651Z,47.03
2018-02-23T17:04:59.613Z,59.40
2018-02-23T17:07:27.901Z,52.10
2018-02-23T17:09:56.370Z,46.40
2018-02-23T17:12:24.418Z,54.67
2018-02-23T17:14:52.308Z,65.68
2018-02-23T17:17:20.995Z,37.97
2018-02-23T17:19:48.963Z,53.08
2018-02-23T17:22:16.930Z,56.45
2018-02-23T17:24:44.901Z,43.38
2018-02-23T17:27:12.867Z,50.60
2018-02-23T17:29:40.837Z,48.63
2018-02-23T17:32:08.909Z,52.60
2018-02-23T17:34:36.879Z,56.72
2018-02-23T17:37:04.747Z,35.17
2018-02-23T17:39:32.612Z,49.30
2018-02-23T17:42:00.475Z,47.80
2018-02-23T17:44:28.347Z,54.53
2018-02-23T17:46:56.317Z,54.15
2018-02-23T17:49:24.177Z,51.97
2018-02-23T17:51:52.408Z,66.05
2018-02-23T17:54:21.055Z,54.55
2018-02-23T17:56:49.008Z,48.10
2018-02-23T17:59:16.769Z,52.67
2018-02-23T18:01:44.636Z,48.80
2018-02-23T18:04:12.707Z,46.95
2018-02-23T18:06:40.677Z,48.90
2018-02-23T18:09:08.543Z,45.53
2018-02-23T18:11:36.306Z,41.40
2018-02-23T18:14:04.176Z,44.97
2018-02-23T18:16:31.992Z,50.72
2018-02-23T18:18:59.918Z,46.40
2018-02-23T18:21:27.731Z,35.42
2018-02-23T18:23:55.573Z,46.20
2018-02-23T18:26:23.300Z,50.35
2018-02-23T18:28:51.270Z,49.22
2018-02-23T18:31:19.723Z,53.15
2018-02-23T18:33:47.616Z,56.33
2018-02-23T18:36:15.389Z,62.97
2018-02-23T18:38:43.246Z,55.10
2018-02-23T18:41:11.216Z,42.58
2018-02-23T18:43:38.990Z,48.15
2018-02-23T18:46:06.744Z,47.67
2018-02-23T18:48:34.889Z,45.83
2018-02-23T18:51:02.538Z,47.58
2018-02-23T18:53:30.649Z,43.38
2018-02-23T18:55:59.541Z,37.20
2018-02-23T18:58:27.407Z,47.60
2018-02-23T19:00:55.245Z,48.28
2018-02-23T19:03:23.037Z,38.28
2018-02-23T19:05:51.211Z,45.53
2018-02-23T19:08:19.180Z,38.10
2018-02-23T19:10:47.186Z,36.63
2018-02-23T19:13:15.354Z,41.83
2018-02-23T19:15:43.469Z,33.63
2018-02-23T19:18:11.861Z,46.42
2018-02-23T19:20:39.741Z,45.17
2018-02-23T19:23:07.608Z,37.97
2018-02-23T19:25:35.474Z,36.08
2018-02-23T19:28:03.630Z,40.90
2018-02-23T19:30:31.520Z,28.33
2018-02-23T19:32:59.279Z,37.40
2018-02-23T19:35:27.180Z,44.45
2018-02-23T19:37:55.114Z,39.28
2018-02-23T19:40:23.185Z,39.95
2018-02-23T19:42:51.460Z,41.35
2018-02-23T19:45:19.298Z,51.83
2018-02-23T19:47:46.988Z,51.60
2018-02-23T19:50:14.695Z,63.78
2018-02-23T19:52:42.620Z,62.33
2018-02-23T19:55:10.691Z,75.18
2018-02-23T19:57:38.763Z,54.38
2018-02-23T20:00:06.401Z,52.10
2018-02-23T20:02:35.213Z,48.55
2018-02-23T20:05:02.810Z,47.58
2018-02-23T20:07:30.739Z,44.72
2018-02-23T20:09:58.346Z,45.78
2018-02-23T20:12:26.165Z,44.45
2018-02-23T20:14:53.974Z,46.45
2018-02-23T20:17:21.690Z,51.00
2018-02-23T20:19:50.584Z,47.50
2018-02-23T20:22:20.411Z,45.35
2018-02-23T20:24:48.127Z,45.05
2018-02-23T20:27:16.027Z,54.53
2018-02-23T20:29:44.671Z,50.78
2018-02-23T20:32:13.156Z,48.65
2018-02-23T20:34:41.058Z,45.50
2018-02-23T20:37:08.926Z,46.25
2018-02-23T20:39:36.792Z,56.45
2018-02-23T20:42:04.659Z,43.30
2018-02-23T20:44:33.141Z,47.83
2018-02-23T20:47:01.006Z,53.35
2018-02-23T20:49:29.078Z,58.17
2018-02-23T20:51:56.963Z,51.85
2018-02-23T20:54:24.882Z,36.97
2018-02-23T20:56:52.980Z,52.92
2018-02-23T20:59:21.262Z,53.33
2018-02-23T21:01:49.127Z,53.85
2018-02-23T21:04:17.205Z,53.45
2018-02-23T21:06:45.272Z,50.90
2018-02-23T21:09:13.445Z,47.97
2018-02-23T21:11:41.514Z,47.13
2018-02-23T21:14:09.791Z,48.45
2018-02-23T21:16:38.190Z,62.97
2018-02-23T21:19:06.034Z,49.63
2018-02-23T21:21:34.517Z,51.25
2018-02-23T21:24:02.381Z,55.85
2018-02-23T21:26:30.761Z,51.37
2018-02-23T21:28:58.729Z,55.53
2018-02-23T21:31:27.006Z,59.45
2018-02-23T21:33:55.179Z,65.87
2018-02-23T21:36:22.942Z,54.85
2018-02-23T21:38:50.531Z,61.72
2018-02-23T21:41:18.472Z,63.87
2018-02-23T21:43:46.337Z,54.47
2018-02-23T21:46:14.105Z,54.22
2018-02-23T21:48:42.439Z,53.33
2018-02-23T21:51:10.345Z,55.63
2018-02-23T21:53:38.212Z,57.97
2018-02-23T21:56:06.141Z,54.88
2018-02-23T21:58:34.037Z,55.45
2018-02-23T22:01:01.913Z,46.20
2018-02-23T22:03:29.678Z,47.65
2018-02-23T22:05:57.442Z,54.80
2018-02-23T22:08:25.206Z,53.13
2018-02-23T22:10:53.278Z,52.62
2018-02-23T22:13:21.082Z,51.92
2018-02-23T22:15:48.678Z,47.78
2018-02-23T22:18:16.390Z,73.82
2018-02-23T22:20:43.985Z,58.90
2018-02-23T22:23:11.926Z,46.85
2018-02-23T22:25:39.457Z,55.65
2018-02-23T22:28:07.185Z,54.05
2018-02-23T22:30:34.789Z,53.03
2018-02-23T22:33:02.333Z,57.03
2018-02-23T22:35:30.815Z,48.85
2018-02-23T22:37:58.555Z,52.17
2018-02-23T22:40:26.067Z,55.63
2018-02-23T22:42:53.614Z,49.78
2018-02-23T22:45:21.124Z,45.05
2018-02-23T22:47:48.702Z,52.70
2018-02-23T22:50:16.247Z,52.88
2018-02-23T22:52:43.792Z,54.42
2018-02-23T22:55:11.358Z,60.22
2018-02-23T22:57:38.873Z,57.05
2018-02-23T23:00:07.458Z,64.60
2018-02-23T23:02:34.989Z,61.13
2018-02-23T23:05:02.506Z,60.10
2018-02-23T23:07:30.068Z,62.97
2018-02-23T23:09:57.588Z,53.90
2018-02-23T23:12:25.309Z,62.65
2018-02-23T23:14:52.889Z,51.15
2018-02-23T23:17:20.617Z,58.53
2018-02-23T23:19:48.281Z,55.83
2018-02-23T23:22:15.808Z,60.85
2018-02-23T23:24:43.356Z,58.40
2018-02-23T23:27:11.702Z,41.63
2018-02-23T23:29:39.223Z,62.47
2018-02-23T23:32:06.830Z,52.55
2018-02-23T23:34:34.360Z,57.17
2018-02-23T23:37:02.151Z,55.30
2018-02-23T23:39:31.618Z,55.35
2018-02-23T23:42:00.132Z,61.42
2018-02-23T23:44:27.693Z,56.08
2018-02-23T23:46:55.225Z,55.45
2018-02-23T23:49:23.192Z,53.22
2018-02-23T23:51:50.718Z,46.17
2018-02-23T23:54:18.262Z,60.38
2018-02-23T23:56:45.808Z,53.55
2018-02-23T23:59:13.322Z,63.10
